sensor_id;sensor_type;location;lat;lon;timestamp;temperature;humidity
3069;DHT22;1545;51.728;8.796;2022-12-13T00:01:46;-5.00;98.80
3069;DHT22;1545;51.728;8.796;2022-12-13T00:04:13;-5.10;98.80
3069;DHT22;1545;51.728;8.796;2022-12-13T00:06:38;-5.40;98.80
3069;DHT22;1545;51.728;8.796;2022-12-13T00:09:05;-5.50;98.80
3069;DHT22;1545;51.728;8.796;2022-12-13T00:11:31;-5.50;98.80
3069;DHT22;1545;51.728;8.796;2022-12-13T00:13:59;-5.50;98.80
3069;DHT22;1545;51.728;8.796;2022-12-13T00:16:26;-5.50;98.80
3069;DHT22;1545;51.728;8.796;2022-12-13T00:18:56;-5.60;98.80
3069;DHT22;1545;51.728;8.796;2022-12-13T00:21:25;-5.60;98.80
3069;DHT22;1545;51.728;8.796;2022-12-13T00:23:51;-5.60;98.80
3069;DHT22;1545;51.728;8.796;2022-12-13T00:26:19;-5.60;98.80
3069;DHT22;1545;51.728;8.796;2022-12-13T00:28:45;-5.50;98.80
3069;DHT22;1545;51.728;8.796;2022-12-13T00:31:14;-5.40;98.80
3069;DHT22;1545;51.728;8.796;2022-12-13T00:33:39;-5.40;98.80
3069;DHT22;1545;51.728;8.796;2022-12-13T00:36:06;-5.50;98.80
3069;DHT22;1545;51.728;8.796;2022-12-13T00:38:34;-5.50;98.80
3069;DHT22;1545;51.728;8.796;2022-12-13T00:41:09;-5.60;98.80
3069;DHT22;1545;51.728;8.796;2022-12-13T00:43:34;-5.70;98.80
3069;DHT22;1545;51.728;8.796;2022-12-13T00:46:00;-5.60;98.80
3069;DHT22;1545;51.728;8.796;2022-12-13T00:48:25;-5.70;98.80
3069;DHT22;1545;51.728;8.796;2022-12-13T00:50:51;-5.60;98.80
3069;DHT22;1545;51.728;8.796;2022-12-13T00:53:17;-5.60;98.80
3069;DHT22;1545;51.728;8.796;2022-12-13T00:55:42;-5.50;98.80
3069;DHT22;1545;51.728;8.796;2022-12-13T00:58:08;-5.50;98.80
3069;DHT22;1545;51.728;8.796;2022-12-13T01:00:33;-5.50;98.80
3069;DHT22;1545;51.728;8.796;2022-12-13T01:02:59;-5.60;98.80
3069;DHT22;1545;51.728;8.796;2022-12-13T01:05:44;-5.60;98.80
3069;DHT22;1545;51.728;8.796;2022-12-13T01:08:09;-5.70;98.80
3069;DHT22;1545;51.728;8.796;2022-12-13T01:10:35;-5.80;98.80
3069;DHT22;1545;51.728;8.796;2022-12-13T01:13:00;-5.70;98.80
3069;DHT22;1545;51.728;8.796;2022-12-13T01:15:26;-5.70;98.80
3069;DHT22;1545;51.728;8.796;2022-12-13T01:17:51;-5.60;98.80
3069;DHT22;1545;51.728;8.796;2022-12-13T01:20:17;-5.60;98.80
3069;DHT22;1545;51.728;8.796;2022-12-13T01:22:42;-5.70;98.80
3069;DHT22;1545;51.728;8.796;2022-12-13T01:25:08;-5.90;98.80
3069;DHT22;1545;51.728;8.796;2022-12-13T01:27:33;-5.90;98.80
3069;DHT22;1545;51.728;8.796;2022-12-13T01:29:59;-5.90;98.80
3069;DHT22;1545;51.728;8.796;2022-12-13T01:32:25;-5.90;98.80
3069;DHT22;1545;51.728;8.796;2022-12-13T01:34:50;-5.90;98.80
3069;DHT22;1545;51.728;8.796;2022-12-13T01:37:16;-6.00;98.80
3069;DHT22;1545;51.728;8.796;2022-12-13T01:39:41;-6.00;98.80
3069;DHT22;1545;51.728;8.796;2022-12-13T01:42:13;-6.10;98.80
3069;DHT22;1545;51.728;8.796;2022-12-13T01:47:41;-6.10;98.80
3069;DHT22;1545;51.728;8.796;2022-12-13T01:50:12;-6.10;98.80
3069;DHT22;1545;51.728;8.796;2022-12-13T01:52:41;-6.20;98.80
3069;DHT22;1545;51.728;8.796;2022-12-13T01:55:09;-6.20;98.80
3069;DHT22;1545;51.728;8.796;2022-12-13T01:57:37;-6.20;98.80
3069;DHT22;1545;51.728;8.796;2022-12-13T02:00:05;-6.20;98.80
3069;DHT22;1545;51.728;8.796;2022-12-13T02:02:32;-6.20;98.80
3069;DHT22;1545;51.728;8.796;2022-12-13T02:05:15;-6.20;98.80
3069;DHT22;1545;51.728;8.796;2022-12-13T02:07:42;-6.10;98.80
3069;DHT22;1545;51.728;8.796;2022-12-13T02:10:09;-6.10;98.80
3069;DHT22;1545;51.728;8.796;2022-12-13T02:12:36;-6.00;98.80
3069;DHT22;1545;51.728;8.796;2022-12-13T02:15:09;-6.00;98.80
3069;DHT22;1545;51.728;8.796;2022-12-13T02:17:53;-6.10;98.80
3069;DHT22;1545;51.728;8.796;2022-12-13T02:20:48;-6.30;98.80
3069;DHT22;1545;51.728;8.796;2022-12-13T02:31:13;-6.30;98.80
3069;DHT22;1545;51.728;8.796;2022-12-13T02:36:34;-6.40;98.80
3069;DHT22;1545;51.728;8.796;2022-12-13T02:39:17;-6.40;98.80
3069;DHT22;1545;51.728;8.796;2022-12-13T02:41:53;-6.30;98.80
3069;DHT22;1545;51.728;8.796;2022-12-13T02:44:23;-6.40;98.80
3069;DHT22;1545;51.728;8.796;2022-12-13T02:47:02;-6.30;98.80
3069;DHT22;1545;51.728;8.796;2022-12-13T02:49:32;-6.30;98.80
3069;DHT22;1545;51.728;8.796;2022-12-13T02:52:00;-6.30;98.80
3069;DHT22;1545;51.728;8.796;2022-12-13T02:54:26;-6.20;98.80
3069;DHT22;1545;51.728;8.796;2022-12-13T02:56:55;-6.10;98.80
3069;DHT22;1545;51.728;8.796;2022-12-13T02:59:25;-6.00;98.80
3069;DHT22;1545;51.728;8.796;2022-12-13T03:05:28;-5.90;98.80
3069;DHT22;1545;51.728;8.796;2022-12-13T03:08:29;-5.80;98.80
3069;DHT22;1545;51.728;8.796;2022-12-13T03:11:08;-5.80;98.80
3069;DHT22;1545;51.728;8.796;2022-12-13T03:13:56;-5.90;98.80
3069;DHT22;1545;51.728;8.796;2022-12-13T03:19:05;-5.90;98.80
3069;DHT22;1545;51.728;8.796;2022-12-13T03:21:43;-6.00;98.80
3069;DHT22;1545;51.728;8.796;2022-12-13T03:24:09;-6.00;98.80
3069;DHT22;1545;51.728;8.796;2022-12-13T03:26:36;-6.00;98.80
3069;DHT22;1545;51.728;8.796;2022-12-13T03:29:02;-6.00;98.80
3069;DHT22;1545;51.728;8.796;2022-12-13T03:31:28;-6.10;98.80
3069;DHT22;1545;51.728;8.796;2022-12-13T03:33:53;-6.10;98.80
3069;DHT22;1545;51.728;8.796;2022-12-13T03:36:20;-6.10;98.80
3069;DHT22;1545;51.728;8.796;2022-12-13T03:38:47;-6.10;98.80
3069;DHT22;1545;51.728;8.796;2022-12-13T03:41:15;-6.10;98.80
3069;DHT22;1545;51.728;8.796;2022-12-13T03:43:41;-6.10;98.80
3069;DHT22;1545;51.728;8.796;2022-12-13T03:46:07;-6.10;98.80
3069;DHT22;1545;51.728;8.796;2022-12-13T03:48:33;-5.90;98.80
3069;DHT22;1545;51.728;8.796;2022-12-13T03:50:58;-5.90;98.80
3069;DHT22;1545;51.728;8.796;2022-12-13T03:53:25;-5.90;98.80
3069;DHT22;1545;51.728;8.796;2022-12-13T03:55:51;-5.90;98.80
3069;DHT22;1545;51.728;8.796;2022-12-13T03:58:16;-5.90;98.80
3069;DHT22;1545;51.728;8.796;2022-12-13T04:00:42;-6.00;98.80
3069;DHT22;1545;51.728;8.796;2022-12-13T04:03:08;-6.10;98.80
3069;DHT22;1545;51.728;8.796;2022-12-13T04:05:34;-6.10;98.80
3069;DHT22;1545;51.728;8.796;2022-12-13T04:08:00;-6.20;98.80
3069;DHT22;1545;51.728;8.796;2022-12-13T04:10:26;-6.30;98.80
3069;DHT22;1545;51.728;8.796;2022-12-13T04:12:52;-6.40;98.80
3069;DHT22;1545;51.728;8.796;2022-12-13T04:15:36;-6.50;98.80
3069;DHT22;1545;51.728;8.796;2022-12-13T04:18:02;-6.60;98.80
3069;DHT22;1545;51.728;8.796;2022-12-13T04:20:27;-6.60;98.80
3069;DHT22;1545;51.728;8.796;2022-12-13T04:22:53;-6.70;98.80
3069;DHT22;1545;51.728;8.796;2022-12-13T04:25:18;-6.70;98.80
3069;DHT22;1545;51.728;8.796;2022-12-13T04:27:45;-6.80;98.80
3069;DHT22;1545;51.728;8.796;2022-12-13T04:30:11;-6.80;98.80
3069;DHT22;1545;51.728;8.796;2022-12-13T04:32:37;-6.60;98.80
3069;DHT22;1545;51.728;8.796;2022-12-13T04:35:03;-6.50;98.80
3069;DHT22;1545;51.728;8.796;2022-12-13T04:37:29;-6.50;98.80
3069;DHT22;1545;51.728;8.796;2022-12-13T04:39:54;-6.40;98.80
3069;DHT22;1545;51.728;8.796;2022-12-13T04:42:20;-6.40;98.80
3069;DHT22;1545;51.728;8.796;2022-12-13T04:44:46;-6.40;98.80
3069;DHT22;1545;51.728;8.796;2022-12-13T04:47:14;-6.50;98.80
3069;DHT22;1545;51.728;8.796;2022-12-13T04:49:39;-6.60;98.80
3069;DHT22;1545;51.728;8.796;2022-12-13T04:52:05;-6.70;98.80
3069;DHT22;1545;51.728;8.796;2022-12-13T04:54:31;-6.80;98.80
3069;DHT22;1545;51.728;8.796;2022-12-13T04:56:57;-6.90;98.80
3069;DHT22;1545;51.728;8.796;2022-12-13T04:59:22;-6.80;98.80
3069;DHT22;1545;51.728;8.796;2022-12-13T05:01:48;-6.90;98.80
3069;DHT22;1545;51.728;8.796;2022-12-13T05:04:13;-6.80;98.80
3069;DHT22;1545;51.728;8.796;2022-12-13T05:06:39;-6.80;98.80
3069;DHT22;1545;51.728;8.796;2022-12-13T05:09:04;-6.80;98.80
3069;DHT22;1545;51.728;8.796;2022-12-13T05:11:30;-6.90;98.80
3069;DHT22;1545;51.728;8.796;2022-12-13T05:13:55;-6.90;98.80
3069;DHT22;1545;51.728;8.796;2022-12-13T05:16:21;-6.80;98.80
3069;DHT22;1545;51.728;8.796;2022-12-13T05:18:47;-6.80;98.80
3069;DHT22;1545;51.728;8.796;2022-12-13T05:21:12;-6.70;98.80
3069;DHT22;1545;51.728;8.796;2022-12-13T05:23:38;-6.50;98.80
3069;DHT22;1545;51.728;8.796;2022-12-13T05:26:05;-6.60;98.80
3069;DHT22;1545;51.728;8.796;2022-12-13T05:28:30;-6.60;98.80
3069;DHT22;1545;51.728;8.796;2022-12-13T05:30:58;-6.60;98.80
3069;DHT22;1545;51.728;8.796;2022-12-13T05:33:29;-6.70;98.80
3069;DHT22;1545;51.728;8.796;2022-12-13T05:35:55;-6.80;98.80
3069;DHT22;1545;51.728;8.796;2022-12-13T05:38:21;-7.00;98.80
3069;DHT22;1545;51.728;8.796;2022-12-13T05:40:46;-7.40;98.80
3069;DHT22;1545;51.728;8.796;2022-12-13T05:43:12;-7.50;98.80
3069;DHT22;1545;51.728;8.796;2022-12-13T05:45:38;-7.50;98.80
3069;DHT22;1545;51.728;8.796;2022-12-13T05:48:04;-7.40;98.80
3069;DHT22;1545;51.728;8.796;2022-12-13T05:50:29;-7.30;98.80
3069;DHT22;1545;51.728;8.796;2022-12-13T05:52:55;-7.30;98.80
3069;DHT22;1545;51.728;8.796;2022-12-13T05:55:20;-7.30;98.80
3069;DHT22;1545;51.728;8.796;2022-12-13T05:57:46;-7.40;98.80
3069;DHT22;1545;51.728;8.796;2022-12-13T06:00:12;-7.30;98.80
3069;DHT22;1545;51.728;8.796;2022-12-13T06:02:38;-7.30;98.80
3069;DHT22;1545;51.728;8.796;2022-12-13T06:05:05;-7.30;98.80
3069;DHT22;1545;51.728;8.796;2022-12-13T06:07:31;-7.30;98.80
3069;DHT22;1545;51.728;8.796;2022-12-13T06:09:57;-7.50;98.80
3069;DHT22;1545;51.728;8.796;2022-12-13T06:12:22;-7.70;98.80
3069;DHT22;1545;51.728;8.796;2022-12-13T06:14:48;-7.60;98.80
3069;DHT22;1545;51.728;8.796;2022-12-13T06:17:14;-7.60;98.80
3069;DHT22;1545;51.728;8.796;2022-12-13T06:19:39;-7.70;98.80
3069;DHT22;1545;51.728;8.796;2022-12-13T06:22:05;-7.50;98.80
3069;DHT22;1545;51.728;8.796;2022-12-13T06:24:30;-7.40;98.80
3069;DHT22;1545;51.728;8.796;2022-12-13T06:26:56;-7.20;98.80
3069;DHT22;1545;51.728;8.796;2022-12-13T06:29:23;-7.10;98.80
3069;DHT22;1545;51.728;8.796;2022-12-13T06:31:52;-7.00;98.80
3069;DHT22;1545;51.728;8.796;2022-12-13T06:34:18;-6.80;98.80
3069;DHT22;1545;51.728;8.796;2022-12-13T06:36:44;-6.90;98.80
3069;DHT22;1545;51.728;8.796;2022-12-13T06:39:09;-6.90;98.80
3069;DHT22;1545;51.728;8.796;2022-12-13T06:41:35;-6.80;98.80
3069;DHT22;1545;51.728;8.796;2022-12-13T06:44:01;-6.80;98.80
3069;DHT22;1545;51.728;8.796;2022-12-13T06:46:26;-6.80;98.80
3069;DHT22;1545;51.728;8.796;2022-12-13T06:48:52;-7.00;98.80
3069;DHT22;1545;51.728;8.796;2022-12-13T06:51:18;-7.30;98.80
3069;DHT22;1545;51.728;8.796;2022-12-13T06:53:44;-7.50;98.80
3069;DHT22;1545;51.728;8.796;2022-12-13T06:56:12;-7.50;98.80
3069;DHT22;1545;51.728;8.796;2022-12-13T06:58:39;-7.60;98.80
3069;DHT22;1545;51.728;8.796;2022-12-13T07:01:13;-7.50;98.80
3069;DHT22;1545;51.728;8.796;2022-12-13T07:03:39;-7.40;98.80
3069;DHT22;1545;51.728;8.796;2022-12-13T07:06:08;-7.20;98.80
3069;DHT22;1545;51.728;8.796;2022-12-13T07:08:36;-7.10;98.80
3069;DHT22;1545;51.728;8.796;2022-12-13T07:11:02;-7.00;98.80
3069;DHT22;1545;51.728;8.796;2022-12-13T07:13:27;-7.00;98.80
3069;DHT22;1545;51.728;8.796;2022-12-13T07:15:53;-6.90;98.80
3069;DHT22;1545;51.728;8.796;2022-12-13T07:18:18;-6.80;98.80
3069;DHT22;1545;51.728;8.796;2022-12-13T07:20:44;-6.80;98.80
3069;DHT22;1545;51.728;8.796;2022-12-13T07:23:10;-6.80;98.80
3069;DHT22;1545;51.728;8.796;2022-12-13T07:25:36;-6.70;98.80
3069;DHT22;1545;51.728;8.796;2022-12-13T07:28:04;-6.60;98.80
3069;DHT22;1545;51.728;8.796;2022-12-13T07:30:32;-6.60;98.80
3069;DHT22;1545;51.728;8.796;2022-12-13T07:33:00;-6.60;98.80
3069;DHT22;1545;51.728;8.796;2022-12-13T07:35:26;-6.80;98.80
3069;DHT22;1545;51.728;8.796;2022-12-13T07:37:51;-6.80;98.80
3069;DHT22;1545;51.728;8.796;2022-12-13T07:40:17;-6.70;98.80
3069;DHT22;1545;51.728;8.796;2022-12-13T07:42:49;-6.60;98.80
3069;DHT22;1545;51.728;8.796;2022-12-13T07:45:14;-6.50;98.80
3069;DHT22;1545;51.728;8.796;2022-12-13T07:47:40;-6.50;98.80
3069;DHT22;1545;51.728;8.796;2022-12-13T07:50:05;-6.50;98.80
3069;DHT22;1545;51.728;8.796;2022-12-13T07:52:31;-6.40;98.80
3069;DHT22;1545;51.728;8.796;2022-12-13T07:54:57;-6.40;98.80
3069;DHT22;1545;51.728;8.796;2022-12-13T07:57:22;-6.40;98.80
3069;DHT22;1545;51.728;8.796;2022-12-13T07:59:48;-6.30;98.80
3069;DHT22;1545;51.728;8.796;2022-12-13T08:02:13;-6.30;98.80
3069;DHT22;1545;51.728;8.796;2022-12-13T08:04:41;-6.30;98.80
3069;DHT22;1545;51.728;8.796;2022-12-13T08:07:07;-6.30;98.80
3069;DHT22;1545;51.728;8.796;2022-12-13T08:09:33;-6.20;98.60
3069;DHT22;1545;51.728;8.796;2022-12-13T08:11:59;-6.30;98.40
3069;DHT22;1545;51.728;8.796;2022-12-13T08:14:25;-6.30;98.30
3069;DHT22;1545;51.728;8.796;2022-12-13T08:16:51;-6.30;98.30
3069;DHT22;1545;51.728;8.796;2022-12-13T08:19:16;-6.30;98.50
3069;DHT22;1545;51.728;8.796;2022-12-13T08:21:42;-6.20;98.40
3069;DHT22;1545;51.728;8.796;2022-12-13T08:24:08;-6.10;98.50
3069;DHT22;1545;51.728;8.796;2022-12-13T08:26:33;-5.90;98.70
3069;DHT22;1545;51.728;8.796;2022-12-13T08:29:00;-5.80;98.70
3069;DHT22;1545;51.728;8.796;2022-12-13T08:31:25;-5.70;98.60
3069;DHT22;1545;51.728;8.796;2022-12-13T08:33:51;-5.60;98.60
3069;DHT22;1545;51.728;8.796;2022-12-13T08:36:17;-5.50;98.40
3069;DHT22;1545;51.728;8.796;2022-12-13T08:38:46;-5.40;98.00
3069;DHT22;1545;51.728;8.796;2022-12-13T08:41:12;-5.40;97.80
3069;DHT22;1545;51.728;8.796;2022-12-13T08:43:38;-5.40;97.70
3069;DHT22;1545;51.728;8.796;2022-12-13T08:46:04;-5.30;97.50
3069;DHT22;1545;51.728;8.796;2022-12-13T08:48:30;-5.20;97.20
3069;DHT22;1545;51.728;8.796;2022-12-13T08:51:10;-5.20;97.10
3069;DHT22;1545;51.728;8.796;2022-12-13T08:53:37;-5.10;96.80
3069;DHT22;1545;51.728;8.796;2022-12-13T08:56:05;-5.00;96.70
3069;DHT22;1545;51.728;8.796;2022-12-13T08:58:32;-4.90;96.60
3069;DHT22;1545;51.728;8.796;2022-12-13T09:00:58;-4.80;96.50
3069;DHT22;1545;51.728;8.796;2022-12-13T09:03:23;-4.80;96.10
3069;DHT22;1545;51.728;8.796;2022-12-13T09:05:49;-4.70;96.00
3069;DHT22;1545;51.728;8.796;2022-12-13T09:08:16;-4.70;95.90
3069;DHT22;1545;51.728;8.796;2022-12-13T09:10:42;-4.70;95.90
3069;DHT22;1545;51.728;8.796;2022-12-13T09:13:07;-4.60;95.80
3069;DHT22;1545;51.728;8.796;2022-12-13T09:15:37;-4.50;95.70
3069;DHT22;1545;51.728;8.796;2022-12-13T09:18:03;-4.50;95.60
3069;DHT22;1545;51.728;8.796;2022-12-13T09:20:28;-4.50;95.50
3069;DHT22;1545;51.728;8.796;2022-12-13T09:22:54;-4.50;95.60
3069;DHT22;1545;51.728;8.796;2022-12-13T09:25:20;-4.50;95.80
3069;DHT22;1545;51.728;8.796;2022-12-13T09:27:45;-4.50;95.80
3069;DHT22;1545;51.728;8.796;2022-12-13T09:30:17;-4.40;96.00
3069;DHT22;1545;51.728;8.796;2022-12-13T09:32:42;-4.30;95.90
3069;DHT22;1545;51.728;8.796;2022-12-13T09:35:14;-4.30;95.70
3069;DHT22;1545;51.728;8.796;2022-12-13T09:37:39;-4.20;95.60
3069;DHT22;1545;51.728;8.796;2022-12-13T09:40:05;-4.20;95.60
3069;DHT22;1545;51.728;8.796;2022-12-13T09:42:32;-4.10;95.40
3069;DHT22;1545;51.728;8.796;2022-12-13T09:45:02;-4.00;95.20
3069;DHT22;1545;51.728;8.796;2022-12-13T09:47:34;-4.00;94.90
3069;DHT22;1545;51.728;8.796;2022-12-13T09:50:04;-3.90;94.90
3069;DHT22;1545;51.728;8.796;2022-12-13T09:52:36;-3.80;94.70
3069;DHT22;1545;51.728;8.796;2022-12-13T09:55:20;-3.70;94.60
3069;DHT22;1545;51.728;8.796;2022-12-13T09:57:46;-3.70;94.20
3069;DHT22;1545;51.728;8.796;2022-12-13T10:00:16;-3.60;94.00
3069;DHT22;1545;51.728;8.796;2022-12-13T10:02:53;-3.60;94.30
3069;DHT22;1545;51.728;8.796;2022-12-13T10:05:33;-3.50;94.40
3069;DHT22;1545;51.728;8.796;2022-12-13T10:08:21;-3.40;94.00
3069;DHT22;1545;51.728;8.796;2022-12-13T10:10:49;-3.40;93.70
3069;DHT22;1545;51.728;8.796;2022-12-13T10:13:20;-3.40;93.60
3069;DHT22;1545;51.728;8.796;2022-12-13T10:15:50;-3.30;93.30
3069;DHT22;1545;51.728;8.796;2022-12-13T10:18:36;-3.30;93.30
3069;DHT22;1545;51.728;8.796;2022-12-13T10:21:07;-3.30;93.00
3069;DHT22;1545;51.728;8.796;2022-12-13T10:23:33;-3.20;93.40
3069;DHT22;1545;51.728;8.796;2022-12-13T10:25:58;-3.20;93.70
3069;DHT22;1545;51.728;8.796;2022-12-13T10:28:31;-3.10;93.80
3069;DHT22;1545;51.728;8.796;2022-12-13T10:30:58;-3.10;93.70
3069;DHT22;1545;51.728;8.796;2022-12-13T10:33:27;-3.00;93.50
3069;DHT22;1545;51.728;8.796;2022-12-13T10:38:33;-3.00;93.30
3069;DHT22;1545;51.728;8.796;2022-12-13T10:40:59;-2.90;93.30
3069;DHT22;1545;51.728;8.796;2022-12-13T10:43:26;-2.90;93.20
3069;DHT22;1545;51.728;8.796;2022-12-13T10:51:06;-2.80;93.10
3069;DHT22;1545;51.728;8.796;2022-12-13T10:53:54;-2.80;92.90
3069;DHT22;1545;51.728;8.796;2022-12-13T10:56:22;-2.80;92.70
3069;DHT22;1545;51.728;8.796;2022-12-13T10:59:24;-2.70;92.40
3069;DHT22;1545;51.728;8.796;2022-12-13T11:01:50;-2.80;92.10
3069;DHT22;1545;51.728;8.796;2022-12-13T11:04:46;-2.70;92.10
3069;DHT22;1545;51.728;8.796;2022-12-13T11:07:32;-2.70;92.30
3069;DHT22;1545;51.728;8.796;2022-12-13T11:10:24;-2.70;92.10
3069;DHT22;1545;51.728;8.796;2022-12-13T11:12:52;-2.70;91.90
3069;DHT22;1545;51.728;8.796;2022-12-13T11:15:24;-2.70;91.50
3069;DHT22;1545;51.728;8.796;2022-12-13T11:18:02;-2.60;91.50
3069;DHT22;1545;51.728;8.796;2022-12-13T11:20:53;-2.50;91.20
3069;DHT22;1545;51.728;8.796;2022-12-13T11:23:36;-2.60;91.00
3069;DHT22;1545;51.728;8.796;2022-12-13T11:26:08;-2.60;91.30
3069;DHT22;1545;51.728;8.796;2022-12-13T11:34:13;-2.50;91.50
3069;DHT22;1545;51.728;8.796;2022-12-13T11:39:49;-2.50;91.20
3069;DHT22;1545;51.728;8.796;2022-12-13T11:42:58;-2.60;91.00
3069;DHT22;1545;51.728;8.796;2022-12-13T11:45:37;-2.50;91.10
3069;DHT22;1545;51.728;8.796;2022-12-13T11:48:20;-2.50;91.20
3069;DHT22;1545;51.728;8.796;2022-12-13T11:50:50;-2.50;91.30
3069;DHT22;1545;51.728;8.796;2022-12-13T11:56:14;-2.50;90.90
3069;DHT22;1545;51.728;8.796;2022-12-13T11:58:47;-2.40;91.00
3069;DHT22;1545;51.728;8.796;2022-12-13T12:04:05;-2.40;91.10
3069;DHT22;1545;51.728;8.796;2022-12-13T12:06:44;-2.30;91.10
3069;DHT22;1545;51.728;8.796;2022-12-13T12:09:14;-2.30;91.10
3069;DHT22;1545;51.728;8.796;2022-12-13T12:12:09;-2.30;91.00
3069;DHT22;1545;51.728;8.796;2022-12-13T12:14:45;-2.30;90.60
3069;DHT22;1545;51.728;8.796;2022-12-13T12:17:21;-2.30;90.50
3069;DHT22;1545;51.728;8.796;2022-12-13T12:19:51;-2.20;90.30
3069;DHT22;1545;51.728;8.796;2022-12-13T12:25:21;-2.20;89.80
3069;DHT22;1545;51.728;8.796;2022-12-13T12:33:35;-2.30;89.90
3069;DHT22;1545;51.728;8.796;2022-12-13T12:44:40;-2.20;90.20
3069;DHT22;1545;51.728;8.796;2022-12-13T12:53:15;-2.00;90.70
3069;DHT22;1545;51.728;8.796;2022-12-13T12:55:59;-2.00;90.10
3069;DHT22;1545;51.728;8.796;2022-12-13T12:58:34;-2.00;88.70
3069;DHT22;1545;51.728;8.796;2022-12-13T13:04:05;-2.00;87.90
3069;DHT22;1545;51.728;8.796;2022-12-13T13:06:41;-2.00;88.20
3069;DHT22;1545;51.728;8.796;2022-12-13T13:09:11;-2.10;88.80
3069;DHT22;1545;51.728;8.796;2022-12-13T13:11:40;-2.10;89.30
3069;DHT22;1545;51.728;8.796;2022-12-13T13:14:27;-2.10;89.20
3069;DHT22;1545;51.728;8.796;2022-12-13T13:16:53;-2.10;88.60
3069;DHT22;1545;51.728;8.796;2022-12-13T13:21:57;-2.10;88.60
3069;DHT22;1545;51.728;8.796;2022-12-13T13:24:24;-2.10;88.70
3069;DHT22;1545;51.728;8.796;2022-12-13T13:26:53;-2.20;88.30
3069;DHT22;1545;51.728;8.796;2022-12-13T13:34:22;-2.30;88.80
3069;DHT22;1545;51.728;8.796;2022-12-13T13:36:48;-2.30;88.80
3069;DHT22;1545;51.728;8.796;2022-12-13T13:39:18;-2.30;89.00
3069;DHT22;1545;51.728;8.796;2022-12-13T13:53:12;-2.60;89.10
3069;DHT22;1545;51.728;8.796;2022-12-13T13:56:10;-2.60;89.50
3069;DHT22;1545;51.728;8.796;2022-12-13T14:13:29;-3.00;89.90
3069;DHT22;1545;51.728;8.796;2022-12-13T14:26:56;-3.50;91.90
3069;DHT22;1545;51.728;8.796;2022-12-13T14:29:30;-3.60;92.00
3069;DHT22;1545;51.728;8.796;2022-12-13T14:31:57;-3.70;92.30
3069;DHT22;1545;51.728;8.796;2022-12-13T14:34:25;-3.80;92.40
3069;DHT22;1545;51.728;8.796;2022-12-13T14:36:57;-4.00;92.80
3069;DHT22;1545;51.728;8.796;2022-12-13T14:39:23;-4.00;93.20
3069;DHT22;1545;51.728;8.796;2022-12-13T14:41:55;-4.10;93.20
3069;DHT22;1545;51.728;8.796;2022-12-13T14:44:27;-4.10;93.40
3069;DHT22;1545;51.728;8.796;2022-12-13T14:46:55;-4.10;93.40
3069;DHT22;1545;51.728;8.796;2022-12-13T14:49:22;-4.20;93.50
3069;DHT22;1545;51.728;8.796;2022-12-13T14:51:53;-4.20;93.50
3069;DHT22;1545;51.728;8.796;2022-12-13T14:54:27;-4.30;93.60
3069;DHT22;1545;51.728;8.796;2022-12-13T14:56:59;-4.20;93.70
3069;DHT22;1545;51.728;8.796;2022-12-13T14:59:26;-4.30;93.40
3069;DHT22;1545;51.728;8.796;2022-12-13T15:01:56;-4.30;93.50
3069;DHT22;1545;51.728;8.796;2022-12-13T15:04:29;-4.40;93.40
3069;DHT22;1545;51.728;8.796;2022-12-13T15:06:59;-4.50;93.50
3069;DHT22;1545;51.728;8.796;2022-12-13T15:09:26;-4.60;93.80
3069;DHT22;1545;51.728;8.796;2022-12-13T15:11:52;-4.60;94.20
3069;DHT22;1545;51.728;8.796;2022-12-13T15:14:20;-4.60;94.20
3069;DHT22;1545;51.728;8.796;2022-12-13T15:16:51;-4.70;94.30
3069;DHT22;1545;51.728;8.796;2022-12-13T15:19:23;-4.70;94.30
3069;DHT22;1545;51.728;8.796;2022-12-13T15:24:26;-4.90;94.40
3069;DHT22;1545;51.728;8.796;2022-12-13T15:26:57;-4.90;94.70
3069;DHT22;1545;51.728;8.796;2022-12-13T15:29:25;-4.90;94.60
3069;DHT22;1545;51.728;8.796;2022-12-13T15:31:52;-4.90;94.70
3069;DHT22;1545;51.728;8.796;2022-12-13T15:36:58;-5.00;95.00
3069;DHT22;1545;51.728;8.796;2022-12-13T15:39:24;-4.90;95.00
3069;DHT22;1545;51.728;8.796;2022-12-13T15:41:52;-5.00;94.80
3069;DHT22;1545;51.728;8.796;2022-12-13T15:44:30;-5.00;94.80
3069;DHT22;1545;51.728;8.796;2022-12-13T15:47:11;-5.10;94.90
3069;DHT22;1545;51.728;8.796;2022-12-13T15:57:51;-5.20;95.30
3069;DHT22;1545;51.728;8.796;2022-12-13T16:05:30;-5.20;95.40
3069;DHT22;1545;51.728;8.796;2022-12-13T16:07:58;-5.20;95.60
3069;DHT22;1545;51.728;8.796;2022-12-13T16:10:25;-5.30;95.50
3069;DHT22;1545;51.728;8.796;2022-12-13T16:12:56;-5.30;95.70
3069;DHT22;1545;51.728;8.796;2022-12-13T16:15:28;-5.30;95.80
3069;DHT22;1545;51.728;8.796;2022-12-13T16:18:04;-5.30;95.90
3069;DHT22;1545;51.728;8.796;2022-12-13T16:20:30;-5.30;96.00
3069;DHT22;1545;51.728;8.796;2022-12-13T16:22:56;-5.30;95.80
3069;DHT22;1545;51.728;8.796;2022-12-13T16:25:21;-5.40;95.80
3069;DHT22;1545;51.728;8.796;2022-12-13T16:27:47;-5.40;95.60
3069;DHT22;1545;51.728;8.796;2022-12-13T16:30:25;-5.50;95.60
3069;DHT22;1545;51.728;8.796;2022-12-13T16:32:51;-5.50;96.10
3069;DHT22;1545;51.728;8.796;2022-12-13T16:35:18;-5.40;96.40
3069;DHT22;1545;51.728;8.796;2022-12-13T16:37:43;-5.30;96.70
3069;DHT22;1545;51.728;8.796;2022-12-13T16:40:27;-5.30;96.70
3069;DHT22;1545;51.728;8.796;2022-12-13T16:43:04;-5.20;96.40
3069;DHT22;1545;51.728;8.796;2022-12-13T16:45:37;-5.20;96.00
3069;DHT22;1545;51.728;8.796;2022-12-13T16:48:10;-5.20;96.10
3069;DHT22;1545;51.728;8.796;2022-12-13T16:50:41;-5.20;96.00
3069;DHT22;1545;51.728;8.796;2022-12-13T16:53:07;-5.30;95.90
3069;DHT22;1545;51.728;8.796;2022-12-13T16:55:32;-5.30;95.90
3069;DHT22;1545;51.728;8.796;2022-12-13T16:58:00;-5.30;95.80
3069;DHT22;1545;51.728;8.796;2022-12-13T17:00:27;-5.40;95.60
3069;DHT22;1545;51.728;8.796;2022-12-13T17:02:53;-5.50;95.90
3069;DHT22;1545;51.728;8.796;2022-12-13T17:05:20;-5.40;96.10
3069;DHT22;1545;51.728;8.796;2022-12-13T17:07:46;-5.30;96.20
3069;DHT22;1545;51.728;8.796;2022-12-13T17:10:12;-5.30;96.30
3069;DHT22;1545;51.728;8.796;2022-12-13T17:12:37;-5.40;96.30
3069;DHT22;1545;51.728;8.796;2022-12-13T17:15:04;-5.40;96.30
3069;DHT22;1545;51.728;8.796;2022-12-13T17:17:30;-5.40;96.20
3069;DHT22;1545;51.728;8.796;2022-12-13T17:19:55;-5.50;96.10
3069;DHT22;1545;51.728;8.796;2022-12-13T17:22:21;-5.50;96.20
3069;DHT22;1545;51.728;8.796;2022-12-13T17:24:46;-5.50;96.10
3069;DHT22;1545;51.728;8.796;2022-12-13T17:27:13;-5.60;96.10
3069;DHT22;1545;51.728;8.796;2022-12-13T17:29:39;-5.60;96.10
3069;DHT22;1545;51.728;8.796;2022-12-13T17:32:04;-5.50;96.30
3069;DHT22;1545;51.728;8.796;2022-12-13T17:34:31;-5.50;96.40
3069;DHT22;1545;51.728;8.796;2022-12-13T17:36:56;-5.50;96.30
3069;DHT22;1545;51.728;8.796;2022-12-13T17:39:22;-5.50;96.30
3069;DHT22;1545;51.728;8.796;2022-12-13T17:41:47;-5.50;96.30
3069;DHT22;1545;51.728;8.796;2022-12-13T17:44:13;-5.50;96.30
3069;DHT22;1545;51.728;8.796;2022-12-13T17:46:38;-5.40;96.40
3069;DHT22;1545;51.728;8.796;2022-12-13T17:49:04;-5.20;96.20
3069;DHT22;1545;51.728;8.796;2022-12-13T17:51:29;-5.10;95.80
3069;DHT22;1545;51.728;8.796;2022-12-13T17:53:55;-5.10;95.60
3069;DHT22;1545;51.728;8.796;2022-12-13T17:56:21;-5.10;95.20
3069;DHT22;1545;51.728;8.796;2022-12-13T17:58:46;-5.10;95.20
3069;DHT22;1545;51.728;8.796;2022-12-13T18:01:18;-5.20;95.30
3069;DHT22;1545;51.728;8.796;2022-12-13T18:03:44;-5.20;95.10
3069;DHT22;1545;51.728;8.796;2022-12-13T18:06:10;-5.30;94.80
3069;DHT22;1545;51.728;8.796;2022-12-13T18:08:37;-5.40;94.90
3069;DHT22;1545;51.728;8.796;2022-12-13T18:11:05;-5.30;95.20
3069;DHT22;1545;51.728;8.796;2022-12-13T18:13:31;-5.40;95.30
3069;DHT22;1545;51.728;8.796;2022-12-13T18:15:57;-5.40;95.70
3069;DHT22;1545;51.728;8.796;2022-12-13T18:18:22;-5.30;96.10
3069;DHT22;1545;51.728;8.796;2022-12-13T18:20:48;-5.30;96.20
3069;DHT22;1545;51.728;8.796;2022-12-13T18:23:14;-5.00;96.60
3069;DHT22;1545;51.728;8.796;2022-12-13T18:25:41;-5.00;96.20